Time;durP1;ratioP1;P1;durP2;ratioP2;P2;SDS_P1;SDS_P2;PMS_P1;PMS_P2;Temp;Humidity;BMP_temperature;BMP_pressure;BME280_temperature;BME280_humidity;BME280_pressure;Samples;Min_cycle;Max_cycle;Signal;HPM_P1;HPM_P2
2021/09/22 00:00:47;;;;;;;14.65;10.75;;;10.00;99.90;;;;;;5033362;28;20481;-75
2021/09/22 00:03:12;;;;;;;11.88;10.68;;;10.00;99.90;;;;;;5032976;28;20109;-74
2021/09/22 00:05:38;;;;;;;11.15;10.07;;;10.00;99.90;;;;;;5033103;28;20061;-74
2021/09/22 00:08:04;;;;;;;12.32;11.13;;;10.00;99.90;;;;;;5033420;28;20113;-74
2021/09/22 00:10:29;;;;;;;33.38;10.60;;;10.00;99.90;;;;;;5031548;28;20067;-74
2021/09/22 00:12:55;;;;;;;12.00;10.90;;;9.90;99.90;;;;;;5032788;28;20033;-73
2021/09/22 00:15:23;;;;;;;14.90;11.95;;;9.90;99.90;;;;;;5033352;28;20024;-74
2021/09/22 00:17:49;;;;;;;13.10;11.80;;;9.80;99.90;;;;;;5031630;28;20033;-75
2021/09/22 00:20:16;;;;;;;13.55;12.15;;;9.90;99.90;;;;;;5032516;28;20021;-74
2021/09/22 00:22:42;;;;;;;12.70;11.35;;;9.90;99.90;;;;;;5032768;28;20021;-75
2021/09/22 00:25:09;;;;;;;12.30;11.00;;;9.80;99.90;;;;;;5032612;28;20041;-75
2021/09/22 00:27:35;;;;;;;14.02;10.75;;;9.80;99.90;;;;;;5031096;28;20515;-75
2021/09/22 00:30:01;;;;;;;12.25;11.15;;;9.80;99.90;;;;;;5031616;28;20025;-74
2021/09/22 00:32:27;;;;;;;12.20;10.95;;;9.80;99.90;;;;;;5032407;28;20386;-75
2021/09/22 00:34:53;;;;;;;12.18;10.93;;;9.80;99.90;;;;;;5032351;28;20033;-75
2021/09/22 00:37:19;;;;;;;15.70;11.38;;;9.80;99.90;;;;;;5031168;28;20026;-74
2021/09/22 00:39:45;;;;;;;13.93;11.73;;;9.80;99.90;;;;;;5032139;28;20105;-75
2021/09/22 00:42:11;;;;;;;12.02;10.80;;;9.80;99.90;;;;;;5030844;28;20061;-74
2021/09/22 00:45:07;;;;;;;14.45;11.27;;;9.80;99.90;;;;;;5032585;28;20096;-75
2021/09/22 00:47:32;;;;;;;13.00;11.63;;;9.70;99.90;;;;;;5019814;28;20072;-74
2021/09/22 00:49:58;;;;;;;12.73;11.40;;;9.80;99.90;;;;;;5030723;28;20025;-75
2021/09/22 00:52:24;;;;;;;14.00;11.73;;;9.80;99.90;;;;;;5032985;28;20099;-75
2021/09/22 00:54:51;;;;;;;12.75;11.43;;;9.80;99.90;;;;;;5032316;28;20036;-74
2021/09/22 00:57:18;;;;;;;11.63;10.55;;;9.70;99.90;;;;;;5037121;28;20025;-74
2021/09/22 00:59:44;;;;;;;12.45;11.25;;;9.70;99.90;;;;;;5030869;28;20464;-76
2021/09/22 01:02:10;;;;;;;12.50;11.20;;;9.70;99.90;;;;;;5032270;28;20486;-76
2021/09/22 01:04:37;;;;;;;13.40;11.98;;;9.60;99.90;;;;;;5032297;28;20022;-75
2021/09/22 01:07:04;;;;;;;12.25;11.02;;;9.60;99.90;;;;;;5032163;28;20024;-74
2021/09/22 01:09:30;;;;;;;12.25;11.15;;;9.60;99.90;;;;;;5031944;28;20028;-74
2021/09/22 01:11:56;;;;;;;13.02;11.73;;;9.60;99.90;;;;;;5032437;28;20021;-75
2021/09/22 01:14:26;;;;;;;13.73;11.88;;;9.60;99.90;;;;;;5031847;28;20494;-74
2021/09/22 01:16:52;;;;;;;13.85;10.93;;;9.60;99.90;;;;;;5032035;28;20037;-74
2021/09/22 01:19:21;;;;;;;12.60;11.30;;;9.60;99.90;;;;;;5031701;28;20026;-75
2021/09/22 01:21:51;;;;;;;12.20;10.93;;;9.60;99.90;;;;;;5032066;28;20025;-74
2021/09/22 01:24:17;;;;;;;13.68;12.35;;;9.60;99.90;;;;;;5032186;28;20025;-75
2021/09/22 01:26:43;;;;;;;12.35;11.15;;;9.60;99.90;;;;;;5031896;28;20026;-75
2021/09/22 01:29:09;;;;;;;13.73;11.73;;;9.60;99.90;;;;;;5031768;28;20029;-75
2021/09/22 01:31:39;;;;;;;13.82;11.93;;;9.60;99.90;;;;;;5031884;28;20036;-74
2021/09/22 01:34:06;;;;;;;14.05;12.63;;;9.60;99.90;;;;;;5032077;28;20025;-74
2021/09/22 01:36:32;;;;;;;15.52;12.57;;;9.60;99.90;;;;;;5032019;28;20049;-73
2021/09/22 01:38:58;;;;;;;13.88;12.43;;;9.60;99.90;;;;;;5031641;28;20061;-74
2021/09/22 01:41:24;;;;;;;15.50;12.00;;;9.50;99.90;;;;;;5031901;28;20507;-73
2021/09/22 01:43:50;;;;;;;13.38;12.05;;;9.50;99.90;;;;;;5038680;28;20017;-75
2021/09/22 01:46:16;;;;;;;14.38;12.90;;;9.50;99.90;;;;;;5036277;28;20029;-74
2021/09/22 01:48:42;;;;;;;13.95;12.55;;;9.50;99.90;;;;;;5034440;28;20021;-75
2021/09/22 01:51:09;;;;;;;14.05;12.43;;;9.50;99.90;;;;;;5036022;28;20022;-74
2021/09/22 01:53:35;;;;;;;14.77;13.35;;;9.40;99.90;;;;;;5037140;28;20032;-74
2021/09/22 01:56:02;;;;;;;14.43;12.98;;;9.30;99.90;;;;;;5037675;28;20049;-74
2021/09/22 01:58:29;;;;;;;16.05;13.00;;;9.40;99.90;;;;;;5037404;28;20077;-74
2021/09/22 02:00:57;;;;;;;14.38;12.88;;;9.40;99.90;;;;;;5036714;28;20033;-74
2021/09/22 02:03:23;;;;;;;14.45;13.02;;;9.30;99.90;;;;;;5037208;28;20029;-74
2021/09/22 02:05:49;;;;;;;14.73;13.30;;;9.30;99.90;;;;;;5035894;28;20022;-75
2021/09/22 02:08:14;;;;;;;16.48;13.75;;;9.30;99.90;;;;;;5035379;28;20101;-74
2021/09/22 02:10:41;;;;;;;14.65;13.13;;;9.30;99.90;;;;;;5035351;28;20025;-75
2021/09/22 02:13:07;;;;;;;18.80;14.50;;;9.30;99.90;;;;;;5035312;28;20034;-75
2021/09/22 02:15:32;;;;;;;13.45;12.15;;;9.30;99.90;;;;;;5036439;28;20334;-74
2021/09/22 02:17:58;;;;;;;14.70;13.10;;;9.20;99.90;;;;;;5037421;28;20029;-75
2021/09/22 02:20:24;;;;;;;14.30;12.65;;;9.20;99.90;;;;;;5040280;28;20029;-74
2021/09/22 02:22:51;;;;;;;15.45;13.32;;;9.10;99.90;;;;;;5037613;28;20068;-74
2021/09/22 02:25:17;;;;;;;15.32;13.07;;;9.10;99.90;;;;;;5038800;28;20024;-74
2021/09/22 02:27:43;;;;;;;14.80;12.90;;;9.10;99.90;;;;;;5038414;28;20489;-75
2021/09/22 02:30:11;;;;;;;14.38;12.88;;;9.10;99.90;;;;;;5034986;28;20040;-76
2021/09/22 02:32:39;;;;;;;16.60;13.38;;;9.10;99.90;;;;;;5035259;28;20560;-76
2021/09/22 02:35:06;;;;;;;16.67;14.25;;;9.10;99.90;;;;;;5035243;28;20091;-75
2021/09/22 02:37:32;;;;;;;21.17;16.40;;;9.10;99.90;;;;;;5033409;28;20116;-75
2021/09/22 02:39:58;;;;;;;20.42;15.57;;;9.10;99.90;;;;;;5034603;28;20100;-75
2021/09/22 02:42:24;;;;;;;15.27;13.60;;;9.20;99.90;;;;;;5034936;28;20029;-75
2021/09/22 02:44:50;;;;;;;16.08;14.23;;;9.20;99.90;;;;;;5034314;28;20029;-75
2021/09/22 02:47:16;;;;;;;17.00;14.65;;;9.20;99.90;;;;;;5034849;28;20079;-75
2021/09/22 02:49:42;;;;;;;19.25;14.25;;;9.10;99.90;;;;;;5033287;28;20022;-75
2021/09/22 02:52:08;;;;;;;16.73;13.98;;;9.20;99.90;;;;;;5034715;28;20049;-75
2021/09/22 02:54:34;;;;;;;19.33;15.68;;;9.10;99.90;;;;;;5051180;28;20037;-73
2021/09/22 02:56:59;;;;;;;15.95;14.18;;;9.10;99.90;;;;;;5055940;28;20018;-74
2021/09/22 02:59:25;;;;;;;16.17;14.55;;;9.00;99.90;;;;;;5075814;22;20041;-74
2021/09/22 03:01:51;;;;;;;17.52;15.10;;;9.00;99.90;;;;;;5054328;28;20044;-73
2021/09/22 03:04:16;;;;;;;17.95;14.18;;;9.00;99.90;;;;;;5054588;28;20032;-73
2021/09/22 03:06:42;;;;;;;19.58;14.73;;;9.00;99.90;;;;;;5054593;28;20024;-75
2021/09/22 03:09:08;;;;;;;23.42;16.80;;;8.90;99.90;;;;;;5054659;28;20468;-74
2021/09/22 03:11:33;;;;;;;19.02;14.48;;;8.90;99.90;;;;;;5054432;28;20520;-73
2021/09/22 03:13:59;;;;;;;18.15;14.63;;;8.90;99.90;;;;;;5054376;28;20504;-72
2021/09/22 03:16:25;;;;;;;16.98;14.57;;;9.00;99.90;;;;;;5052942;28;20029;-74
2021/09/22 03:18:50;;;;;;;22.92;15.30;;;8.90;99.90;;;;;;5054057;28;20032;-73
2021/09/22 03:21:16;;;;;;;18.88;14.05;;;8.90;99.90;;;;;;5054037;28;20051;-73
2021/09/22 03:23:41;;;;;;;16.15;14.45;;;9.00;99.90;;;;;;5054212;28;20017;-73
2021/09/22 03:26:07;;;;;;;18.90;15.80;;;9.10;99.90;;;;;;5054277;28;20477;-72
2021/09/22 03:28:33;;;;;;;18.77;16.00;;;9.20;99.90;;;;;;5054838;28;20021;-73
2021/09/22 03:30:59;;;;;;;23.27;15.27;;;9.10;99.90;;;;;;5054070;28;20396;-72
2021/09/22 03:33:24;;;;;;;17.85;15.15;;;9.10;99.90;;;;;;5054050;28;20443;-74
2021/09/22 03:35:50;;;;;;;20.80;14.52;;;9.10;99.90;;;;;;5054231;28;20032;-72
2021/09/22 03:38:16;;;;;;;21.20;14.52;;;9.10;99.90;;;;;;5053755;28;20087;-73
2021/09/22 03:40:42;;;;;;;19.45;14.48;;;9.10;99.90;;;;;;5052469;28;20052;-74
2021/09/22 03:43:08;;;;;;;22.30;14.70;;;9.30;99.90;;;;;;5052594;28;20492;-74
2021/09/22 03:45:33;;;;;;;19.73;14.55;;;9.20;99.90;;;;;;5053722;28;20435;-72
2021/09/22 03:47:59;;;;;;;17.80;15.90;;;9.20;99.90;;;;;;5053494;28;20029;-73
2021/09/22 03:50:24;;;;;;;18.77;15.23;;;9.10;99.90;;;;;;5053565;28;20100;-74
2021/09/22 03:52:50;;;;;;;22.10;15.73;;;9.00;99.90;;;;;;5053783;28;20374;-74
2021/09/22 03:55:16;;;;;;;18.35;15.40;;;8.80;99.90;;;;;;5060179;28;20068;-73
2021/09/22 03:57:41;;;;;;;17.48;15.40;;;8.80;99.90;;;;;;5053547;28;20041;-73
2021/09/22 04:00:08;;;;;;;22.98;16.23;;;8.70;99.90;;;;;;5053161;28;20074;-73
2021/09/22 04:02:34;;;;;;;22.73;16.92;;;8.80;99.90;;;;;;5055883;28;20424;-73
2021/09/22 04:05:00;;;;;;;21.45;15.13;;;8.70;99.90;;;;;;5056247;28;20032;-73
2021/09/22 04:07:25;;;;;;;22.77;14.32;;;8.60;99.90;;;;;;5056175;28;20033;-72
2021/09/22 04:09:51;;;;;;;22.25;15.57;;;8.70;99.90;;;;;;5053808;28;20115;-72
2021/09/22 04:12:16;;;;;;;26.45;16.13;;;8.70;99.90;;;;;;5053489;28;20025;-73
2021/09/22 04:14:42;;;;;;;23.92;16.00;;;8.70;99.90;;;;;;5053773;28;20100;-73
2021/09/22 04:17:07;;;;;;;16.92;15.13;;;8.80;99.90;;;;;;5053563;28;20020;-73
2021/09/22 04:19:34;;;;;;;16.52;14.52;;;8.90;99.90;;;;;;5053684;28;20055;-72
2021/09/22 04:22:00;;;;;;;20.35;16.23;;;8.90;99.90;;;;;;5053191;28;20025;-72
2021/09/22 04:24:26;;;;;;;19.88;14.10;;;9.00;99.90;;;;;;5053736;28;20024;-73
2021/09/22 04:26:51;;;;;;;15.93;14.27;;;8.90;99.90;;;;;;5062523;28;20075;-73
2021/09/22 04:29:17;;;;;;;17.98;16.08;;;8.90;99.90;;;;;;5066062;28;20044;-72
2021/09/22 04:31:43;;;;;;;19.10;16.00;;;8.90;99.90;;;;;;5065826;28;20028;-72
2021/09/22 04:34:08;;;;;;;16.65;14.70;;;8.90;99.90;;;;;;5067603;28;20039;-72
2021/09/22 04:36:34;;;;;;;20.05;15.98;;;8.90;99.90;;;;;;5058019;28;20100;-73
2021/09/22 04:39:00;;;;;;;17.80;15.25;;;8.90;99.90;;;;;;5059038;28;20029;-74
2021/09/22 04:41:26;;;;;;;19.30;15.48;;;8.90;99.90;;;;;;5054333;28;20029;-74
2021/09/22 04:43:51;;;;;;;19.88;15.45;;;8.90;99.90;;;;;;5053969;28;20032;-72
2021/09/22 04:46:17;;;;;;;19.10;16.27;;;9.00;99.90;;;;;;5054799;28;20033;-72
2021/09/22 04:48:42;;;;;;;21.77;16.45;;;8.90;99.90;;;;;;5053879;28;20024;-73
2021/09/22 04:51:08;;;;;;;17.92;15.68;;;8.90;99.90;;;;;;5053426;28;20393;-72
2021/09/22 04:53:34;;;;;;;20.65;16.02;;;8.80;99.90;;;;;;5052611;28;20087;-73
2021/09/22 04:56:00;;;;;;;20.67;16.33;;;8.70;99.90;;;;;;5054443;28;20036;-73
2021/09/22 04:58:26;;;;;;;18.60;16.58;;;8.70;99.90;;;;;;5054515;28;20036;-73
2021/09/22 05:00:51;;;;;;;20.77;16.45;;;8.80;99.90;;;;;;5053374;28;20037;-74
2021/09/22 05:03:17;;;;;;;23.98;16.98;;;8.70;99.90;;;;;;5051325;28;20029;-73
2021/09/22 05:05:43;;;;;;;23.52;17.73;;;8.70;99.90;;;;;;5053443;28;20370;-73
2021/09/22 05:08:09;;;;;;;21.35;16.55;;;8.70;99.90;;;;;;5053018;28;20024;-72
2021/09/22 05:10:35;;;;;;;21.33;16.77;;;8.60;99.90;;;;;;5052757;28;20021;-73
2021/09/22 05:13:01;;;;;;;21.95;16.92;;;8.60;99.90;;;;;;5053279;28;20033;-73
2021/09/22 05:15:26;;;;;;;20.48;16.88;;;8.70;99.90;;;;;;5051652;28;20492;-73
2021/09/22 05:17:52;;;;;;;19.65;17.17;;;8.70;99.90;;;;;;5054868;28;20461;-72
2021/09/22 05:20:17;;;;;;;20.42;15.57;;;8.70;99.90;;;;;;5056601;28;20025;-72
2021/09/22 05:22:43;;;;;;;21.23;16.40;;;8.70;99.90;;;;;;5057062;28;20081;-72
2021/09/22 05:25:09;;;;;;;18.60;15.07;;;8.80;99.90;;;;;;5056697;28;20029;-72
2021/09/22 05:27:35;;;;;;;20.83;15.95;;;8.70;99.90;;;;;;5055442;28;20439;-74
2021/09/22 05:30:00;;;;;;;18.38;16.38;;;8.80;99.90;;;;;;5056231;28;20103;-72
2021/09/22 05:32:26;;;;;;;19.88;15.82;;;8.70;99.90;;;;;;5056886;28;20051;-74
2021/09/22 05:34:52;;;;;;;19.60;14.82;;;8.80;99.90;;;;;;5056524;28;20064;-72
2021/09/22 05:37:18;;;;;;;21.83;16.00;;;8.80;99.90;;;;;;5055028;28;20112;-72
2021/09/22 05:39:44;;;;;;;17.27;14.98;;;8.80;99.90;;;;;;5056116;28;20119;-73
2021/09/22 05:42:10;;;;;;;20.17;15.18;;;8.90;99.90;;;;;;5068466;28;20025;-73
2021/09/22 05:44:36;;;;;;;17.92;15.18;;;9.00;99.90;;;;;;5070458;28;20508;-73
2021/09/22 05:47:01;;;;;;;20.13;15.15;;;9.00;99.90;;;;;;5070512;28;20109;-72
2021/09/22 05:49:28;;;;;;;18.35;15.23;;;9.00;99.90;;;;;;5057727;28;20024;-72
2021/09/22 05:51:54;;;;;;;19.40;15.52;;;8.90;99.90;;;;;;5058258;28;20480;-74
2021/09/22 05:54:21;;;;;;;21.92;15.30;;;8.90;99.90;;;;;;5059728;28;20082;-73
2021/09/22 05:56:47;;;;;;;17.80;15.85;;;9.00;99.90;;;;;;5068662;28;20025;-73
2021/09/22 05:59:13;;;;;;;22.00;15.65;;;9.10;99.90;;;;;;5066133;28;20025;-72
2021/09/22 06:01:39;;;;;;;25.92;16.33;;;9.10;99.90;;;;;;5055491;28;20090;-75
2021/09/22 06:04:04;;;;;;;17.00;14.43;;;9.30;99.90;;;;;;5057031;28;20029;-73
2021/09/22 06:06:30;;;;;;;17.00;14.60;;;9.50;99.90;;;;;;5057202;28;20342;-72
2021/09/22 06:08:55;;;;;;;15.98;14.27;;;9.70;99.90;;;;;;5070545;28;20029;-72
2021/09/22 06:11:21;;;;;;;16.83;14.48;;;9.80;99.90;;;;;;5080235;28;20029;-72
2021/09/22 06:13:52;;;;;;;21.02;14.00;;;10.00;99.90;;;;;;5080293;28;20025;-70
2021/09/22 06:16:17;;;;;;;18.20;14.68;;;10.10;99.90;;;;;;5058576;28;20071;-73
2021/09/22 06:18:43;;;;;;;16.55;13.68;;;10.20;99.90;;;;;;5058719;28;20029;-73
2021/09/22 06:21:09;;;;;;;16.42;14.07;;;10.30;99.90;;;;;;5063129;28;20092;-74
2021/09/22 06:23:35;;;;;;;15.93;14.32;;;10.30;99.90;;;;;;5059403;28;20017;-72
2021/09/22 06:26:00;;;;;;;19.70;15.05;;;10.40;99.90;;;;;;5057432;28;20044;-73
2021/09/22 06:28:26;;;;;;;17.23;15.25;;;10.50;99.90;;;;;;5058175;28;20025;-73
2021/09/22 06:30:52;;;;;;;21.67;15.00;;;10.60;99.90;;;;;;5058535;28;20025;-73
2021/09/22 06:33:17;;;;;;;16.40;14.65;;;10.70;99.90;;;;;;5058353;28;20025;-73
2021/09/22 06:35:43;;;;;;;17.08;14.10;;;10.80;99.90;;;;;;5058538;28;20036;-72
2021/09/22 06:38:09;;;;;;;18.42;15.23;;;10.90;99.90;;;;;;5056968;28;20036;-72
2021/09/22 06:40:34;;;;;;;18.20;13.98;;;10.90;99.90;;;;;;5058727;28;20032;-72
2021/09/22 06:43:02;;;;;;;20.83;15.65;;;11.10;99.90;;;;;;5058711;28;20017;-73
2021/09/22 06:45:27;;;;;;;24.05;15.52;;;11.20;99.90;;;;;;5061242;28;20017;-73
2021/09/22 06:47:53;;;;;;;20.92;15.88;;;11.10;99.90;;;;;;5060509;28;20017;-73
2021/09/22 06:50:19;;;;;;;19.75;15.55;;;11.00;99.90;;;;;;5055046;28;20025;-73
2021/09/22 06:52:45;;;;;;;18.50;14.80;;;11.00;99.90;;;;;;5054190;28;20051;-72
2021/09/22 06:55:11;;;;;;;17.45;15.60;;;11.30;99.90;;;;;;5054287;28;20489;-73
2021/09/22 06:57:37;;;;;;;18.85;14.00;;;11.40;99.90;;;;;;5055696;28;20029;-74
2021/09/22 07:00:04;;;;;;;18.02;16.13;;;11.50;99.90;;;;;;5055572;28;20036;-74
2021/09/22 07:02:30;;;;;;;17.13;15.07;;;11.50;99.90;;;;;;5056397;28;20021;-73
2021/09/22 07:04:55;;;;;;;16.58;14.88;;;11.60;99.90;;;;;;5063120;28;20036;-74
2021/09/22 07:07:21;;;;;;;18.48;16.40;;;11.70;99.90;;;;;;5067424;28;20025;-73
2021/09/22 07:09:47;;;;;;;18.63;16.05;;;11.70;99.90;;;;;;5068298;28;20033;-74
2021/09/22 07:12:12;;;;;;;17.13;14.77;;;11.60;99.90;;;;;;5060718;28;20036;-74
2021/09/22 07:14:38;;;;;;;16.35;14.65;;;11.30;99.90;;;;;;5058354;28;20017;-74
2021/09/22 07:17:03;;;;;;;20.45;15.68;;;11.50;99.90;;;;;;5059913;28;20068;-73
2021/09/22 07:19:29;;;;;;;17.52;15.43;;;11.70;99.90;;;;;;5057382;28;20078;-74
2021/09/22 07:21:55;;;;;;;19.42;16.08;;;11.70;99.90;;;;;;5058288;28;20048;-73
2021/09/22 07:24:20;;;;;;;19.00;15.82;;;11.70;99.90;;;;;;5057817;28;20025;-73
2021/09/22 07:26:46;;;;;;;19.20;14.88;;;11.90;99.90;;;;;;5065252;28;20439;-73
2021/09/22 07:29:11;;;;;;;17.85;15.93;;;12.10;99.90;;;;;;5061210;28;20036;-73
2021/09/22 07:31:37;;;;;;;18.50;14.80;;;12.20;99.90;;;;;;5056852;28;20167;-74
2021/09/22 07:34:03;;;;;;;20.35;16.20;;;12.20;99.90;;;;;;5053464;28;20032;-74
2021/09/22 07:36:30;;;;;;;18.60;15.32;;;12.10;99.90;;;;;;5054288;28;20086;-74
2021/09/22 07:38:56;;;;;;;16.60;14.80;;;12.20;99.90;;;;;;5060665;28;20075;-73
2021/09/22 07:41:22;;;;;;;18.80;15.52;;;12.40;99.90;;;;;;5065677;28;20005;-73
2021/09/22 07:43:47;;;;;;;21.17;15.85;;;12.40;99.90;;;;;;5068431;28;20025;-72
2021/09/22 07:46:13;;;;;;;24.90;16.60;;;12.50;99.90;;;;;;5059036;28;20074;-73
2021/09/22 07:48:38;;;;;;;18.00;15.88;;;12.40;99.90;;;;;;5061737;28;20033;-73
2021/09/22 07:51:04;;;;;;;16.17;14.23;;;12.50;99.90;;;;;;5064106;28;20028;-73
2021/09/22 07:53:31;;;;;;;16.42;14.63;;;12.90;99.90;;;;;;5059657;28;20082;-73
2021/09/22 07:55:56;;;;;;;17.65;14.82;;;12.80;99.90;;;;;;5061625;28;20037;-73
2021/09/22 07:58:22;;;;;;;18.92;15.20;;;12.60;99.90;;;;;;5063501;28;20039;-72
2021/09/22 08:00:47;;;;;;;20.88;15.65;;;12.70;99.90;;;;;;5066270;28;20037;-73
2021/09/22 08:03:13;;;;;;;18.88;15.40;;;13.20;99.90;;;;;;5066094;28;20029;-74
2021/09/22 08:05:39;;;;;;;17.10;14.85;;;13.40;99.90;;;;;;5069007;28;20025;-73
2021/09/22 08:08:09;;;;;;;16.85;14.60;;;13.50;99.90;;;;;;5065213;28;20036;-73
2021/09/22 08:10:36;;;;;;;16.83;15.02;;;13.70;99.90;;;;;;5058680;28;20025;-73
2021/09/22 08:13:03;;;;;;;18.05;15.25;;;13.30;99.90;;;;;;5058250;28;20033;-72
2021/09/22 08:15:29;;;;;;;17.35;15.23;;;13.70;99.90;;;;;;5057201;28;20025;-73
2021/09/22 08:17:55;;;;;;;19.30;16.05;;;13.90;99.90;;;;;;5058625;28;20025;-72
2021/09/22 08:20:20;;;;;;;17.42;15.20;;;13.90;99.90;;;;;;5058043;28;20021;-74
2021/09/22 08:22:48;;;;;;;17.30;14.88;;;14.10;99.90;;;;;;5057314;28;20021;-73
2021/09/22 08:25:14;;;;;;;17.15;14.52;;;14.20;99.90;;;;;;5054448;28;20096;-73
2021/09/22 08:27:39;;;;;;;15.93;14.32;;;14.00;99.90;;;;;;5053831;28;20484;-72
2021/09/22 08:30:07;;;;;;;17.77;15.80;;;14.20;99.90;;;;;;5052412;28;20025;-74
2021/09/22 08:32:33;;;;;;;19.52;14.65;;;14.00;99.90;;;;;;5053313;28;20029;-72
2021/09/22 08:34:59;;;;;;;16.77;14.70;;;14.10;99.90;;;;;;5052099;28;20021;-73
2021/09/22 08:37:24;;;;;;;17.70;12.82;;;13.80;99.90;;;;;;5053527;28;20393;-74
2021/09/22 08:39:50;;;;;;;15.02;13.55;;;13.90;99.90;;;;;;5054413;28;20025;-73
2021/09/22 08:42:16;;;;;;;19.70;14.07;;;13.90;99.90;;;;;;5053803;28;20104;-74
2021/09/22 08:44:42;;;;;;;17.17;13.95;;;13.80;99.90;;;;;;5052576;28;20061;-74
2021/09/22 08:47:08;;;;;;;15.80;14.15;;;14.00;99.90;;;;;;5052816;28;20166;-75
2021/09/22 08:49:33;;;;;;;16.08;13.30;;;14.30;99.90;;;;;;5055104;28;20465;-73
2021/09/22 08:51:59;;;;;;;15.65;12.68;;;14.80;99.90;;;;;;5052560;28;20029;-76
2021/09/22 08:54:25;;;;;;;13.02;11.73;;;15.00;99.90;;;;;;5052928;28;20025;-73
2021/09/22 08:56:50;;;;;;;13.23;11.88;;;15.10;99.90;;;;;;5053311;28;20032;-74
2021/09/22 08:59:17;;;;;;;13.27;11.90;;;15.20;99.90;;;;;;5053196;28;20036;-73
2021/09/22 09:02:06;;;;;;;15.98;12.52;;;15.40;99.90;;;;;;5077761;22;20136;-74
2021/09/22 09:04:31;;;;;;;14.68;12.63;;;15.50;99.90;;;;;;5052084;28;20572;-74
2021/09/22 09:06:58;;;;;;;14.93;12.27;;;15.50;99.90;;;;;;5055567;28;20049;-74
2021/09/22 09:09:31;;;;;;;16.40;12.18;;;15.60;99.90;;;;;;5053811;28;20049;-72
2021/09/22 09:11:57;;;;;;;15.05;12.35;;;15.90;99.90;;;;;;5054254;28;20435;-73
2021/09/22 09:14:23;;;;;;;14.45;12.57;;;16.20;99.90;;;;;;5062192;28;20018;-73
2021/09/22 09:16:49;;;;;;;13.43;12.07;;;16.20;99.90;;;;;;5066213;28;20025;-73
2021/09/22 09:19:16;;;;;;;12.32;10.95;;;16.20;99.90;;;;;;5042082;28;20032;-74
2021/09/22 09:21:54;;;;;;;12.15;10.95;;;16.30;99.90;;;;;;5054293;28;20032;-74
2021/09/22 09:24:41;;;;;;;11.18;10.18;;;16.50;99.90;;;;;;5054583;28;20021;-74
2021/09/22 09:27:10;;;;;;;12.63;10.93;;;16.60;99.90;;;;;;5055363;28;20111;-73
2021/09/22 09:29:38;;;;;;;11.02;9.93;;;16.70;99.90;;;;;;5054005;28;20017;-74
2021/09/22 09:32:16;;;;;;;13.63;10.10;;;16.60;99.90;;;;;;5054926;28;20033;-73
2021/09/22 09:34:56;;;;;;;10.75;9.70;;;16.20;99.90;;;;;;5056772;28;20115;-73
2021/09/22 09:37:46;;;;;;;11.25;10.25;;;16.30;99.90;;;;;;5056697;28;20056;-72
2021/09/22 09:40:20;;;;;;;15.20;10.90;;;16.70;99.90;;;;;;5055507;28;20033;-73
2021/09/22 09:42:48;;;;;;;21.23;11.27;;;16.90;99.90;;;;;;5054587;28;20021;-73
2021/09/22 09:45:18;;;;;;;11.23;10.23;;;16.90;99.90;;;;;;5054742;28;20099;-72
2021/09/22 09:47:58;;;;;;;12.00;9.37;;;16.80;99.90;;;;;;5054359;28;20025;-74
2021/09/22 09:50:23;;;;;;;8.38;7.57;;;16.80;99.90;;;;;;5055532;28;20031;-73
2021/09/22 09:52:55;;;;;;;10.88;8.90;;;17.10;99.90;;;;;;5055024;28;20116;-73
2021/09/22 09:55:26;;;;;;;17.52;9.55;;;17.20;99.90;;;;;;5053758;28;20067;-74
2021/09/22 09:57:53;;;;;;;10.65;9.63;;;16.90;99.90;;;;;;5057063;28;20021;-74
2021/09/22 10:00:41;;;;;;;13.00;8.60;;;16.80;99.90;;;;;;5054240;28;20121;-74
2021/09/22 10:03:16;;;;;;;9.10;8.20;;;16.90;99.90;;;;;;5057561;28;20427;-74
2021/09/22 10:05:42;;;;;;;9.02;7.68;;;16.80;99.90;;;;;;5057519;28;20445;-74
2021/09/22 10:08:16;;;;;;;9.75;7.90;;;17.00;99.90;;;;;;5058174;28;20048;-74
2021/09/22 10:10:44;;;;;;;8.73;7.72;;;17.00;99.90;;;;;;5059313;28;20392;-74
2021/09/22 10:13:11;;;;;;;8.63;7.82;;;16.80;99.90;;;;;;5058546;28;20025;-76
2021/09/22 10:15:39;;;;;;;9.93;7.13;;;17.30;99.90;;;;;;5061283;28;20032;-74
2021/09/22 10:18:05;;;;;;;8.35;7.55;;;17.40;99.90;;;;;;5060360;28;20396;-73
2021/09/22 10:20:32;;;;;;;9.25;7.40;;;17.40;99.90;;;;;;5058743;28;20108;-73
2021/09/22 10:22:59;;;;;;;8.13;7.32;;;17.10;99.90;;;;;;5057498;28;20409;-74
2021/09/22 10:25:24;;;;;;;8.10;7.30;;;16.70;99.90;;;;;;5061577;28;20375;-73
2021/09/22 10:27:50;;;;;;;7.57;6.88;;;16.70;99.90;;;;;;5058655;28;20068;-74
2021/09/22 10:30:17;;;;;;;7.55;6.88;;;16.60;99.90;;;;;;5058768;28;20024;-75
2021/09/22 10:32:49;;;;;;;10.25;7.07;;;16.70;99.90;;;;;;5059630;28;20032;-73
2021/09/22 10:35:26;;;;;;;6.78;6.07;;;17.00;99.90;;;;;;5059449;28;20025;-73
2021/09/22 10:37:54;;;;;;;8.75;6.07;;;17.60;99.90;;;;;;5063829;28;20038;-74
2021/09/22 10:40:34;;;;;;;3.88;3.58;;;17.80;99.90;;;;;;5062053;28;20029;-73
2021/09/22 10:43:15;;;;;;;3.03;2.70;;;17.90;99.00;;;;;;5058735;28;20112;-75
2021/09/22 10:46:03;;;;;;;3.85;3.03;;;17.80;98.70;;;;;;5058453;28;20018;-74
2021/09/22 10:48:29;;;;;;;3.17;2.85;;;17.70;99.20;;;;;;5050094;28;20066;-73
2021/09/22 10:50:58;;;;;;;5.20;3.80;;;17.70;99.70;;;;;;5056975;28;20029;-74
2021/09/22 10:53:32;;;;;;;4.47;3.90;;;17.80;98.80;;;;;;5055975;28;20032;-73
2021/09/22 10:56:02;;;;;;;3.60;3.30;;;17.90;98.30;;;;;;5056473;28;20152;-74
2021/09/22 10:58:32;;;;;;;3.70;3.40;;;17.80;98.50;;;;;;5057290;28;20396;-74
2021/09/22 11:00:58;;;;;;;2.80;2.58;;;18.20;98.50;;;;;;5055799;28;20036;-73
2021/09/22 11:03:46;;;;;;;3.92;3.42;;;18.40;98.20;;;;;;5055131;28;20029;-73
2021/09/22 11:06:43;;;;;;;3.05;2.85;;;18.50;98.30;;;;;;5056745;28;20139;-73
2021/09/22 11:09:10;;;;;;;3.17;2.58;;;18.20;99.20;;;;;;5046027;28;20091;-74
2021/09/22 11:12:00;;;;;;;3.58;3.28;;;18.30;99.40;;;;;;5054893;28;20401;-73
2021/09/22 11:14:32;;;;;;;3.42;3.13;;;18.50;99.20;;;;;;5055892;28;20024;-74
2021/09/22 11:17:07;;;;;;;3.47;2.72;;;18.80;98.20;;;;;;5060040;28;20033;-76
2021/09/22 11:19:34;;;;;;;3.25;2.90;;;19.10;98.00;;;;;;5058528;28;20055;-74
2021/09/22 11:22:02;;;;;;;3.38;2.88;;;19.10;97.10;;;;;;5058246;28;20480;-74
2021/09/22 11:24:30;;;;;;;3.25;2.95;;;18.70;97.70;;;;;;5055973;28;20025;-73
2021/09/22 11:27:04;;;;;;;4.60;4.20;;;19.00;97.50;;;;;;5056807;28;20326;-73
2021/09/22 11:29:41;;;;;;;3.78;3.47;;;18.90;97.50;;;;;;5054895;28;20431;-73
2021/09/22 11:32:32;;;;;;;5.20;3.80;;;18.50;98.50;;;;;;5055961;28;20455;-73
2021/09/22 11:34:59;;;;;;;3.42;3.13;;;18.80;98.30;;;;;;5055244;28;20323;-74
2021/09/22 11:37:37;;;;;;;2.67;2.38;;;18.80;97.90;;;;;;5054248;28;20029;-74
2021/09/22 11:40:17;;;;;;;2.67;1.90;;;18.90;97.90;;;;;;5055435;28;20054;-74
2021/09/22 11:42:55;;;;;;;4.95;3.10;;;18.90;98.80;;;;;;5055004;28;20028;-74
2021/09/22 11:45:26;;;;;;;4.45;2.97;;;19.30;97.70;;;;;;5054431;28;20021;-75
2021/09/22 11:47:51;;;;;;;;;;;19.30;98.00;;;;;;5055608;28;20045;-74
2021/09/22 11:50:36;;;;;;;3.08;2.88;;;19.20;98.30;;;;;;5054890;28;19911;-74
2021/09/22 11:53:05;;;;;;;2.72;2.45;;;19.00;97.70;;;;;;5054741;28;20057;-73
2021/09/22 11:55:31;;;;;;;5.50;3.00;;;19.40;97.70;;;;;;5054588;28;20091;-73
2021/09/22 11:57:56;;;;;;;4.32;3.08;;;19.70;97.20;;;;;;5053814;28;20061;-74
2021/09/22 12:00:24;;;;;;;4.40;2.80;;;19.90;96.90;;;;;;5054690;28;20025;-73
2021/09/22 12:02:51;;;;;;;3.05;2.85;;;19.90;96.70;;;;;;5056032;28;20028;-74
2021/09/22 12:05:18;;;;;;;3.45;3.25;;;19.60;97.10;;;;;;5055086;28;20040;-73
2021/09/22 12:07:45;;;;;;;4.28;3.88;;;19.80;96.90;;;;;;5056105;28;20040;-74
2021/09/22 12:10:12;;;;;;;3.53;3.05;;;19.70;96.50;;;;;;5057214;28;20029;-74
2021/09/22 12:12:39;;;;;;;8.30;4.70;;;19.50;96.80;;;;;;5062380;28;20040;-74
2021/09/22 12:15:07;;;;;;;4.72;4.32;;;19.40;97.40;;;;;;5062128;28;20028;-73
2021/09/22 12:17:35;;;;;;;4.35;3.95;;;18.90;97.60;;;;;;5068023;28;20088;-73
2021/09/22 12:20:03;;;;;;;3.83;3.50;;;18.90;98.30;;;;;;5057314;28;20726;-74
2021/09/22 12:22:32;;;;;;;6.13;3.80;;;19.30;98.10;;;;;;5057177;28;20389;-73
2021/09/22 12:24:58;;;;;;;5.30;3.17;;;19.60;97.90;;;;;;5054016;28;20017;-74
2021/09/22 12:27:25;;;;;;;4.40;3.70;;;19.80;97.10;;;;;;5054162;28;20097;-74
2021/09/22 12:29:54;;;;;;;4.00;3.45;;;19.70;96.60;;;;;;5053992;28;20021;-73
2021/09/22 12:32:20;;;;;;;4.38;3.70;;;19.50;96.70;;;;;;5053847;28;20086;-74
2021/09/22 12:34:45;;;;;;;3.80;3.45;;;19.10;97.60;;;;;;5054252;28;20060;-73
2021/09/22 12:37:17;;;;;;;3.63;2.95;;;19.40;97.30;;;;;;5054105;28;20021;-74